Time;durP1;ratioP1;P1;durP2;ratioP2;P2;SDS_P1;SDS_P2;PMS_P1;PMS_P2;Temp;Humidity;BMP_temperature;BMP_pressure;BME280_temperature;BME280_humidity;BME280_pressure;Samples;Min_cycle;Max_cycle;Signal;HPM_P1;HPM_P2
2023/03/05 00:01:12;;;;;;;7.53;2.50;;;;;;;;;;4993490;28;20181;-43
2023/03/05 00:03:38;;;;;;;4.90;2.45;;;;;;;;;;4991961;28;20451;-43
2023/03/05 00:06:04;;;;;;;3.80;1.90;;;;;;;;;;4993298;28;20648;-44
2023/03/05 00:08:30;;;;;;;4.13;2.30;;;;;;;;;;4992766;28;20412;-44
2023/03/05 00:10:57;;;;;;;15.85;2.17;;;;;;;;;;4991136;28;20286;-43
2023/03/05 00:13:23;;;;;;;4.90;2.20;;;;;;;;;;4988913;28;20506;-43
2023/03/05 00:15:49;;;;;;;5.30;2.83;;;;;;;;;;4991118;28;20169;-43
2023/03/05 00:18:15;;;;;;;8.47;2.40;;;;;;;;;;4992394;28;20416;-43
2023/03/05 00:20:41;;;;;;;5.70;3.00;;;;;;;;;;4991584;28;20404;-44
2023/03/05 00:23:07;;;;;;;4.57;2.83;;;;;;;;;;4992361;28;20199;-43
2023/03/05 00:25:36;;;;;;;7.23;2.97;;;;;;;;;;4994394;28;20413;-44
2023/03/05 00:28:02;;;;;;;4.40;2.42;;;;;;;;;;4994051;28;20467;-43
2023/03/05 00:30:28;;;;;;;6.80;3.20;;;;;;;;;;4993381;28;20410;-42
2023/03/05 00:32:54;;;;;;;10.20;3.35;;;;;;;;;;4994224;28;20296;-44
2023/03/05 00:35:20;;;;;;;12.30;4.10;;;;;;;;;;4995473;28;20601;-44
2023/03/05 00:37:46;;;;;;;5.50;2.60;;;;;;;;;;4993000;28;20427;-44
2023/03/05 00:40:12;;;;;;;12.30;3.25;;;;;;;;;;4993318;28;20424;-44
2023/03/05 00:42:38;;;;;;;7.07;3.25;;;;;;;;;;4993766;28;20235;-44
2023/03/05 00:45:06;;;;;;;11.13;5.13;;;;;;;;;;4992020;28;20697;-44
2023/03/05 00:47:32;;;;;;;6.30;3.63;;;;;;;;;;4993752;28;20498;-44
2023/03/05 00:49:58;;;;;;;11.25;4.68;;;;;;;;;;4993576;28;20235;-44
2023/03/05 00:52:24;;;;;;;6.70;4.10;;;;;;;;;;4993024;28;20204;-44
2023/03/05 00:54:50;;;;;;;8.10;3.55;;;;;;;;;;4993532;28;20791;-44
2023/03/05 00:57:16;;;;;;;9.50;3.97;;;;;;;;;;4993738;28;20574;-44
2023/03/05 00:59:42;;;;;;;7.75;3.75;;;;;;;;;;4993561;28;20184;-44
2023/03/05 01:02:08;;;;;;;14.70;4.17;;;;;;;;;;4992963;28;20197;-44
2023/03/05 01:04:34;;;;;;;11.80;5.33;;;;;;;;;;4993253;28;20478;-44
2023/03/05 01:07:00;;;;;;;7.22;3.78;;;;;;;;;;4993316;28;20499;-44
2023/03/05 01:09:26;;;;;;;11.25;4.20;;;;;;;;;;4993401;28;20185;-44
2023/03/05 01:11:52;;;;;;;12.45;3.90;;;;;;;;;;4992778;28;20680;-44
2023/03/05 01:14:19;;;;;;;5.68;3.15;;;;;;;;;;4991896;28;20184;-44
2023/03/05 01:16:45;;;;;;;7.85;3.70;;;;;;;;;;4993198;28;20194;-44
2023/03/05 01:19:11;;;;;;;8.60;3.80;;;;;;;;;;4993077;28;20188;-44
2023/03/05 01:21:37;;;;;;;10.60;4.05;;;;;;;;;;4992237;28;20802;-44
2023/03/05 01:24:03;;;;;;;5.93;3.70;;;;;;;;;;4992748;28;20192;-44
2023/03/05 01:26:29;;;;;;;9.05;3.90;;;;;;;;;;4993160;28;20452;-44
2023/03/05 01:28:55;;;;;;;8.43;5.82;;;;;;;;;;4992998;28;20184;-44
2023/03/05 01:31:21;;;;;;;7.50;4.93;;;;;;;;;;4992368;28;20727;-44
2023/03/05 01:33:47;;;;;;;12.85;5.72;;;;;;;;;;4992429;28;20932;-44
2023/03/05 01:36:15;;;;;;;6.05;4.35;;;;;;;;;;4992955;28;20171;-44
2023/03/05 01:38:45;;;;;;;6.45;3.35;;;;;;;;;;4992825;28;20166;-44
2023/03/05 01:41:11;;;;;;;9.38;4.28;;;;;;;;;;4991842;28;20193;-44
2023/03/05 01:43:37;;;;;;;4.53;3.42;;;;;;;;;;4991861;28;20185;-44
2023/03/05 01:46:21;;;;;;;10.50;3.80;;;;;;;;;;4992314;28;20186;-44
2023/03/05 01:48:49;;;;;;;7.32;3.85;;;;;;;;;;4991855;28;20199;-44
2023/03/05 01:51:16;;;;;;;8.82;4.72;;;;;;;;;;4992178;28;20240;-43
2023/03/05 01:53:42;;;;;;;12.23;4.50;;;;;;;;;;4992597;28;20189;-44
2023/03/05 01:56:08;;;;;;;6.27;4.57;;;;;;;;;;4992891;28;20275;-44
2023/03/05 01:58:34;;;;;;;17.48;5.72;;;;;;;;;;4992440;28;20408;-44
2023/03/05 02:01:01;;;;;;;9.68;5.00;;;;;;;;;;4991040;28;20602;-44
2023/03/05 02:03:27;;;;;;;9.63;5.20;;;;;;;;;;4992065;28;20251;-44
2023/03/05 02:05:53;;;;;;;10.70;5.87;;;;;;;;;;4991646;28;20193;-43
2023/03/05 02:08:21;;;;;;;7.47;5.07;;;;;;;;;;4991365;28;20814;-44
2023/03/05 02:10:48;;;;;;;15.05;4.63;;;;;;;;;;4991559;28;20411;-44
2023/03/05 02:13:16;;;;;;;6.45;4.53;;;;;;;;;;4991487;28;20185;-44
2023/03/05 02:15:42;;;;;;;8.95;5.90;;;;;;;;;;4992178;28;20192;-44
2023/03/05 02:18:08;;;;;;;14.30;5.60;;;;;;;;;;4992405;28;20719;-44
2023/03/05 02:20:50;;;;;;;6.90;4.22;;;;;;;;;;4991687;28;20668;-44
2023/03/05 02:23:16;;;;;;;9.07;4.07;;;;;;;;;;4985538;28;20184;-44
2023/03/05 02:25:42;;;;;;;15.02;5.07;;;;;;;;;;4992092;28;20208;-44
2023/03/05 02:28:46;;;;;;;10.27;4.82;;;;;;;;;;4992003;28;20212;-44
2023/03/05 02:31:13;;;;;;;9.48;4.13;;;;;;;;;;4993565;28;20319;-44
2023/03/05 02:33:39;;;;;;;4.50;3.72;;;;;;;;;;5001451;28;20216;-44
2023/03/05 02:36:06;;;;;;;3.67;3.37;;;;;;;;;;4995751;28;20575;-44
2023/03/05 02:38:32;;;;;;;9.63;3.70;;;;;;;;;;4995978;28;20419;-44
2023/03/05 02:40:57;;;;;;;5.35;3.38;;;;;;;;;;4995432;28;20184;-44
2023/03/05 02:43:24;;;;;;;15.57;4.47;;;;;;;;;;4995317;28;20179;-44
2023/03/05 02:45:50;;;;;;;5.03;3.67;;;;;;;;;;4995176;28;20432;-44
2023/03/05 02:48:16;;;;;;;6.03;3.57;;;;;;;;;;4996071;28;20654;-44
2023/03/05 02:50:42;;;;;;;10.60;3.70;;;;;;;;;;4995341;28;20412;-43
2023/03/05 02:53:08;;;;;;;5.72;3.72;;;;;;;;;;4995719;28;20892;-44
2023/03/05 02:55:34;;;;;;;5.70;3.50;;;;;;;;;;4995796;28;20229;-44
2023/03/05 02:58:00;;;;;;;6.30;4.25;;;;;;;;;;4995767;28;20778;-44
2023/03/05 03:00:26;;;;;;;5.40;3.63;;;;;;;;;;4995129;28;20185;-44
2023/03/05 03:02:52;;;;;;;3.63;2.65;;;;;;;;;;4996113;28;20990;-44
2023/03/05 03:05:18;;;;;;;6.80;3.53;;;;;;;;;;4995659;28;20185;-44
2023/03/05 03:07:44;;;;;;;8.97;2.57;;;;;;;;;;4995398;28;20494;-44
2023/03/05 03:10:10;;;;;;;8.43;3.10;;;;;;;;;;4994973;28;20893;-44
2023/03/05 03:12:37;;;;;;;5.30;3.10;;;;;;;;;;4995588;28;20436;-44
2023/03/05 03:15:03;;;;;;;11.43;3.00;;;;;;;;;;4994348;28;20181;-44
2023/03/05 03:17:29;;;;;;;7.93;2.58;;;;;;;;;;4994868;28;20181;-44
2023/03/05 03:19:55;;;;;;;7.90;2.43;;;;;;;;;;4995247;28;20550;-44
2023/03/05 03:22:21;;;;;;;3.53;2.17;;;;;;;;;;4994781;28;20443;-44
2023/03/05 03:24:47;;;;;;;3.07;2.77;;;;;;;;;;4995390;28;20426;-44
2023/03/05 03:27:13;;;;;;;7.83;2.33;;;;;;;;;;4995265;28;20517;-44
2023/03/05 03:29:39;;;;;;;7.23;2.50;;;;;;;;;;4995300;28;20415;-44
2023/03/05 03:32:05;;;;;;;12.13;3.57;;;;;;;;;;4994489;28;20434;-44
2023/03/05 03:34:31;;;;;;;8.88;2.97;;;;;;;;;;4995252;28;20435;-44
2023/03/05 03:36:57;;;;;;;6.80;2.80;;;;;;;;;;4994849;28;20192;-44
2023/03/05 03:39:24;;;;;;;4.80;3.33;;;;;;;;;;4995235;28;20415;-44
2023/03/05 03:41:51;;;;;;;7.68;3.53;;;;;;;;;;4993277;28;20546;-44
2023/03/05 03:44:18;;;;;;;7.85;3.30;;;;;;;;;;4994007;28;20181;-44
2023/03/05 03:46:45;;;;;;;6.07;3.90;;;;;;;;;;4994005;28;20280;-44
2023/03/05 03:49:14;;;;;;;11.93;3.40;;;;;;;;;;4994832;28;20176;-44
2023/03/05 03:51:40;;;;;;;6.45;3.50;;;;;;;;;;4994200;28;20196;-44
2023/03/05 03:54:06;;;;;;;6.10;4.07;;;;;;;;;;4995257;28;20184;-44
2023/03/05 03:56:32;;;;;;;9.67;4.37;;;;;;;;;;4994659;28;20507;-44
2023/03/05 03:58:58;;;;;;;5.97;4.07;;;;;;;;;;4994622;28;20423;-44
2023/03/05 04:01:24;;;;;;;4.20;3.40;;;;;;;;;;4993463;28;20459;-44
2023/03/05 04:03:50;;;;;;;13.80;3.40;;;;;;;;;;4994552;28;20419;-44
2023/03/05 04:06:16;;;;;;;4.10;3.10;;;;;;;;;;4994363;28;20423;-44
2023/03/05 04:08:42;;;;;;;4.13;3.03;;;;;;;;;;4994558;28;20451;-44
2023/03/05 04:11:08;;;;;;;4.93;3.33;;;;;;;;;;4992829;28;20510;-44
2023/03/05 04:13:34;;;;;;;3.58;2.80;;;;;;;;;;4994530;28;20491;-44
2023/03/05 04:16:00;;;;;;;7.00;3.20;;;;;;;;;;4994286;28;20330;-44
2023/03/05 04:18:26;;;;;;;10.30;3.70;;;;;;;;;;4994264;28;20410;-44
2023/03/05 04:20:52;;;;;;;4.17;3.23;;;;;;;;;;4993598;28;20475;-44
2023/03/05 04:23:18;;;;;;;10.60;3.03;;;;;;;;;;4994391;28;20785;-44
2023/03/05 04:25:44;;;;;;;8.98;3.30;;;;;;;;;;4994388;28;20420;-44
2023/03/05 04:28:10;;;;;;;4.20;2.93;;;;;;;;;;4993973;28;20211;-44
2023/03/05 04:30:36;;;;;;;3.60;3.28;;;;;;;;;;4993628;28;20408;-44
2023/03/05 04:33:02;;;;;;;7.63;3.67;;;;;;;;;;4993795;28;20205;-44
2023/03/05 04:35:28;;;;;;;7.43;4.07;;;;;;;;;;4994228;28;20630;-44
2023/03/05 04:37:54;;;;;;;7.37;4.20;;;;;;;;;;4994003;28;20748;-44
2023/03/05 04:40:20;;;;;;;10.67;4.47;;;;;;;;;;4993457;28;20439;-44
2023/03/05 04:42:46;;;;;;;17.48;5.40;;;;;;;;;;4992665;28;20463;-44
2023/03/05 04:45:12;;;;;;;7.33;4.17;;;;;;;;;;4993985;28;20558;-44
2023/03/05 04:47:38;;;;;;;10.85;4.80;;;;;;;;;;4993514;28;20451;-44
2023/03/05 04:50:04;;;;;;;9.03;5.20;;;;;;;;;;4993311;28;20181;-44
2023/03/05 04:52:30;;;;;;;7.80;4.28;;;;;;;;;;4993595;28;20439;-44
2023/03/05 04:54:56;;;;;;;7.83;4.13;;;;;;;;;;4989676;28;20544;-44
2023/03/05 04:57:22;;;;;;;12.93;5.17;;;;;;;;;;4993350;28;20900;-44
2023/03/05 04:59:48;;;;;;;6.35;4.65;;;;;;;;;;4993297;28;20916;-44
2023/03/05 05:02:14;;;;;;;6.93;4.33;;;;;;;;;;4992752;28;20204;-44
2023/03/05 05:04:44;;;;;;;11.07;4.57;;;;;;;;;;4993821;28;20775;-44
2023/03/05 05:07:10;;;;;;;7.05;4.10;;;;;;;;;;4993160;28;20451;-44
2023/03/05 05:09:37;;;;;;;6.88;3.70;;;;;;;;;;4993434;28;20177;-44
2023/03/05 05:12:03;;;;;;;8.32;5.22;;;;;;;;;;4991611;28;20295;-44
2023/03/05 05:14:29;;;;;;;8.10;5.22;;;;;;;;;;4992571;28;20181;-44
2023/03/05 05:16:55;;;;;;;4.83;3.93;;;;;;;;;;4992941;28;20625;-44
2023/03/05 05:19:21;;;;;;;14.70;5.53;;;;;;;;;;4993151;28;20450;-44
2023/03/05 05:21:47;;;;;;;10.50;6.07;;;;;;;;;;4992623;28;20528;-44
2023/03/05 05:24:13;;;;;;;18.33;7.53;;;;;;;;;;4993324;28;20416;-44
2023/03/05 05:26:38;;;;;;;18.02;7.60;;;;;;;;;;4993065;28;20458;-44
2023/03/05 05:29:04;;;;;;;16.87;7.10;;;;;;;;;;4992718;28;20177;-44
2023/03/05 05:31:30;;;;;;;18.45;8.98;;;;;;;;;;4992145;28;20559;-44
2023/03/05 05:33:56;;;;;;;16.73;7.60;;;;;;;;;;4992752;28;20242;-44
2023/03/05 05:36:22;;;;;;;20.67;7.50;;;;;;;;;;4993014;28;20611;-44
2023/03/05 05:38:48;;;;;;;16.83;8.07;;;;;;;;;;4992517;28;20419;-44
2023/03/05 05:41:16;;;;;;;16.55;7.95;;;;;;;;;;4991086;28;20440;-45
2023/03/05 05:43:42;;;;;;;21.25;8.15;;;;;;;;;;4992877;28;20173;-45
2023/03/05 05:46:10;;;;;;;20.50;8.60;;;;;;;;;;4992181;28;20547;-44
2023/03/05 05:48:36;;;;;;;19.08;7.03;;;;;;;;;;4992549;28;20471;-44
2023/03/05 05:51:06;;;;;;;20.27;7.63;;;;;;;;;;4992038;28;20176;-44
2023/03/05 05:53:32;;;;;;;18.80;8.05;;;;;;;;;;4992665;28;20177;-44
2023/03/05 05:55:58;;;;;;;18.70;7.80;;;;;;;;;;4992496;28;20224;-44
2023/03/05 05:58:24;;;;;;;17.40;8.17;;;;;;;;;;4992147;28;20511;-44
2023/03/05 06:00:50;;;;;;;15.00;7.80;;;;;;;;;;4991715;28;20419;-44
2023/03/05 06:03:16;;;;;;;18.83;7.97;;;;;;;;;;4992748;28;20930;-44
2023/03/05 06:05:42;;;;;;;14.30;8.30;;;;;;;;;;4992611;28;20826;-44
2023/03/05 06:08:08;;;;;;;14.17;7.97;;;;;;;;;;4991751;28;20468;-44
2023/03/05 06:10:34;;;;;;;18.20;9.20;;;;;;;;;;4991718;28;20416;-44
2023/03/05 06:13:00;;;;;;;28.03;9.30;;;;;;;;;;4989791;28;20668;-44
2023/03/05 06:15:26;;;;;;;12.13;8.45;;;;;;;;;;4991732;28;20424;-44
2023/03/05 06:17:53;;;;;;;15.97;8.10;;;;;;;;;;4992156;28;20203;-44
2023/03/05 06:20:19;;;;;;;21.23;9.18;;;;;;;;;;4991716;28;20444;-44
2023/03/05 06:22:45;;;;;;;14.88;8.50;;;;;;;;;;4992590;28;20196;-44
2023/03/05 06:25:12;;;;;;;21.30;10.35;;;;;;;;;;5004788;28;20218;-44
2023/03/05 06:27:38;;;;;;;15.43;9.35;;;;;;;;;;4992021;28;20208;-44
2023/03/05 06:30:05;;;;;;;23.05;10.30;;;;;;;;;;4990661;28;20168;-44
2023/03/05 06:32:31;;;;;;;14.40;8.23;;;;;;;;;;4985643;28;20216;-44
2023/03/05 06:34:57;;;;;;;20.10;10.50;;;;;;;;;;4991185;28;20572;-44
2023/03/05 06:37:23;;;;;;;23.50;10.90;;;;;;;;;;4992459;28;20180;-44
2023/03/05 06:39:49;;;;;;;16.30;9.55;;;;;;;;;;4991002;28;20443;-44
2023/03/05 06:42:16;;;;;;;16.87;10.30;;;;;;;;;;4990888;28;20688;-43
2023/03/05 06:44:43;;;;;;;20.98;9.43;;;;;;;;;;4990314;28;20491;-44
2023/03/05 06:47:09;;;;;;;16.15;8.80;;;;;;;;;;4983587;28;20227;-43
2023/03/05 06:49:35;;;;;;;19.92;9.55;;;;;;;;;;4991285;28;20177;-44
2023/03/05 06:52:02;;;;;;;10.48;7.22;;;;;;;;;;4990785;28;20204;-43
2023/03/05 06:54:28;;;;;;;13.60;6.78;;;;;;;;;;4991395;28;20797;-44
2023/03/05 06:56:54;;;;;;;16.02;7.05;;;;;;;;;;4991563;28;20192;-43
2023/03/05 06:59:20;;;;;;;12.00;6.10;;;;;;;;;;4991726;28;20188;-43
2023/03/05 07:01:47;;;;;;;20.25;6.95;;;;;;;;;;4991136;28;20803;-43
2023/03/05 07:04:13;;;;;;;12.98;6.32;;;;;;;;;;4986659;28;20213;-43
2023/03/05 07:06:40;;;;;;;11.98;6.22;;;;;;;;;;4991615;28;20213;-44
2023/03/05 07:09:07;;;;;;;16.48;5.25;;;;;;;;;;4991906;28;20168;-44
2023/03/05 07:11:33;;;;;;;12.48;5.07;;;;;;;;;;4991008;28;20632;-43
2023/03/05 07:13:59;;;;;;;7.93;4.80;;;;;;;;;;4991627;28;20185;-43
2023/03/05 07:16:26;;;;;;;13.47;5.10;;;;;;;;;;4991810;28;20520;-44
2023/03/05 07:18:53;;;;;;;12.75;5.22;;;;;;;;;;4991439;28;20420;-44
2023/03/05 07:21:26;;;;;;;13.43;4.70;;;;;;;;;;4994506;28;20715;-44
2023/03/05 07:23:54;;;;;;;7.10;4.75;;;;;;;;;;4995189;28;20185;-44
2023/03/05 07:26:20;;;;;;;9.18;4.63;;;;;;;;;;4994957;28;20169;-43
2023/03/05 07:28:46;;;;;;;6.68;3.80;;;;;;;;;;4995524;28;20252;-43
2023/03/05 07:31:19;;;;;;;11.25;5.28;;;;;;;;;;4994366;28;20212;-43
2023/03/05 07:33:46;;;;;;;6.45;4.00;;;;;;;;;;4993925;28;20192;-44
2023/03/05 07:36:12;;;;;;;4.68;3.97;;;;;;;;;;4994462;28;20173;-43
2023/03/05 07:38:38;;;;;;;8.60;4.20;;;;;;;;;;4994751;28;20184;-44
2023/03/05 07:41:05;;;;;;;9.50;4.13;;;;;;;;;;4994057;28;20263;-43
2023/03/05 07:43:31;;;;;;;4.85;3.70;;;;;;;;;;4995043;28;20248;-43
2023/03/05 07:45:57;;;;;;;11.57;4.67;;;;;;;;;;4994981;28;20264;-43
2023/03/05 07:48:24;;;;;;;9.50;4.27;;;;;;;;;;4995335;28;20452;-43
2023/03/05 07:50:49;;;;;;;9.65;4.95;;;;;;;;;;4993718;28;20455;-43
2023/03/05 07:53:16;;;;;;;13.93;5.20;;;;;;;;;;4994757;28;20216;-44
2023/03/05 07:55:43;;;;;;;5.50;4.13;;;;;;;;;;4995223;28;20774;-42
2023/03/05 07:58:09;;;;;;;12.15;5.50;;;;;;;;;;4986902;28;20212;-44
2023/03/05 08:00:35;;;;;;;9.73;5.85;;;;;;;;;;4992988;28;20188;-43
2023/03/05 08:03:01;;;;;;;10.88;6.47;;;;;;;;;;4992688;28;20205;-44
2023/03/05 08:05:27;;;;;;;11.07;6.03;;;;;;;;;;4993003;28;20185;-44
2023/03/05 08:07:53;;;;;;;8.17;5.10;;;;;;;;;;4994753;28;20344;-43
2023/03/05 08:10:19;;;;;;;16.23;6.20;;;;;;;;;;4993686;28;20507;-43
2023/03/05 08:12:44;;;;;;;7.30;4.67;;;;;;;;;;4994572;28;20936;-43
2023/03/05 08:15:11;;;;;;;12.57;5.60;;;;;;;;;;4994488;28;20774;-43
2023/03/05 08:17:37;;;;;;;8.45;6.90;;;;;;;;;;4994343;28;20412;-44
2023/03/05 08:20:04;;;;;;;15.53;5.93;;;;;;;;;;4990361;28;20195;-43
2023/03/05 08:22:33;;;;;;;12.60;6.97;;;;;;;;;;4994065;28;20436;-43
2023/03/05 08:25:00;;;;;;;18.23;8.90;;;;;;;;;;4994245;28;20653;-43
2023/03/05 08:27:26;;;;;;;16.10;9.05;;;;;;;;;;4994331;28;20215;-43
2023/03/05 08:29:52;;;;;;;15.97;9.20;;;;;;;;;;4994020;28;20202;-44
2023/03/05 08:32:18;;;;;;;32.77;16.23;;;;;;;;;;4991617;28;20432;-43
2023/03/05 08:34:44;;;;;;;23.70;11.37;;;;;;;;;;4992862;28;20447;-44
2023/03/05 08:37:09;;;;;;;37.63;15.90;;;;;;;;;;4994296;28;20498;-44
2023/03/05 08:39:36;;;;;;;34.97;13.43;;;;;;;;;;4993914;28;20412;-44
2023/03/05 08:42:03;;;;;;;32.35;14.95;;;;;;;;;;4993001;28;20450;-43
2023/03/05 08:44:29;;;;;;;31.77;15.35;;;;;;;;;;4993820;28;20185;-43
2023/03/05 08:46:55;;;;;;;33.25;14.40;;;;;;;;;;4993877;28;20247;-44
2023/03/05 08:49:21;;;;;;;20.13;11.10;;;;;;;;;;4993730;28;20192;-43
2023/03/05 08:51:47;;;;;;;16.83;9.70;;;;;;;;;;4993186;28;20193;-44
2023/03/05 08:54:15;;;;;;;18.33;10.27;;;;;;;;;;4999411;28;20467;-43
2023/03/05 08:56:41;;;;;;;17.33;10.45;;;;;;;;;;4993703;28;20951;-43
2023/03/05 08:59:07;;;;;;;12.93;9.03;;;;;;;;;;4993400;28;20259;-43
2023/03/05 09:01:33;;;;;;;16.30;9.70;;;;;;;;;;4992686;28;20443;-44
2023/03/05 09:04:00;;;;;;;16.90;9.27;;;;;;;;;;4992180;28;20172;-44
2023/03/05 09:06:27;;;;;;;22.20;12.20;;;;;;;;;;4993618;28;20181;-44
2023/03/05 09:08:53;;;;;;;20.27;13.75;;;;;;;;;;4993340;28;20188;-43
2023/03/05 09:11:19;;;;;;;21.45;12.23;;;;;;;;;;4992381;28;20192;-44
2023/03/05 09:13:46;;;;;;;19.95;13.00;;;;;;;;;;4993329;28;20232;-43
2023/03/05 09:16:13;;;;;;;24.13;13.38;;;;;;;;;;4993734;28;20252;-43
2023/03/05 09:18:39;;;;;;;22.15;12.75;;;;;;;;;;4992881;28;20315;-43
2023/03/05 09:21:10;;;;;;;22.55;13.25;;;;;;;;;;4992099;28;20692;-43
2023/03/05 09:23:36;;;;;;;29.38;15.90;;;;;;;;;;4993296;28;20212;-43
2023/03/05 09:26:04;;;;;;;25.65;16.08;;;;;;;;;;4993113;28;20341;-43
2023/03/05 09:28:30;;;;;;;24.95;15.02;;;;;;;;;;4993047;28;20651;-43
2023/03/05 09:30:56;;;;;;;23.13;15.30;;;;;;;;;;4991968;28;20252;-43
2023/03/05 09:33:22;;;;;;;18.67;13.37;;;;;;;;;;4992090;28;20427;-43
2023/03/05 09:35:48;;;;;;;25.88;15.50;;;;;;;;;;4991466;28;20436;-43
2023/03/05 09:38:14;;;;;;;23.73;15.13;;;;;;;;;;4992975;28;20538;-43
2023/03/05 09:40:48;;;;;;;20.45;14.93;;;;;;;;;;4992078;28;20408;-43
2023/03/05 09:43:35;;;;;;;20.33;14.07;;;;;;;;;;4984716;28;20583;-44
2023/03/05 09:46:19;;;;;;;20.40;13.50;;;;;;;;;;4992805;28;20191;-44
2023/03/05 09:48:50;;;;;;;18.23;12.00;;;;;;;;;;4992682;28;20228;-43
2023/03/05 09:51:20;;;;;;;12.85;9.75;;;;;;;;;;4991925;28;20321;-44
2023/03/05 09:53:49;;;;;;;16.20;10.75;;;;;;;;;;4992625;28;20173;-42
2023/03/05 09:56:36;;;;;;;14.40;9.40;;;;;;;;;;4992459;28;20180;-43
2023/03/05 09:59:02;;;;;;;14.90;10.27;;;;;;;;;;4992493;28;20184;-43
2023/03/05 10:01:38;;;;;;;20.63;10.13;;;;;;;;;;4991694;28;20220;-43
2023/03/05 10:04:15;;;;;;;14.05;10.10;;;;;;;;;;4991603;28;20431;-43
2023/03/05 10:07:03;;;;;;;17.23;11.18;;;;;;;;;;4991656;28;20695;-43
2023/03/05 10:09:48;;;;;;;16.95;11.25;;;;;;;;;;4987259;28;20722;-43
2023/03/05 10:12:20;;;;;;;15.00;10.52;;;;;;;;;;4984283;28;20307;-43
2023/03/05 10:14:46;;;;;;;15.40;10.93;;;;;;;;;;4992134;28;20578;-44
2023/03/05 10:17:31;;;;;;;15.85;10.98;;;;;;;;;;4992268;28;20235;-43
2023/03/05 10:19:57;;;;;;;17.83;10.35;;;;;;;;;;4992286;28;20181;-44
2023/03/05 10:22:46;;;;;;;16.48;9.50;;;;;;;;;;4991458;28;20204;-44
2023/03/05 10:25:47;;;;;;;13.63;10.17;;;;;;;;;;4992024;28;20201;-43
2023/03/05 10:28:18;;;;;;;15.77;9.47;;;;;;;;;;4963186;28;20534;-44
2023/03/05 10:30:59;;;;;;;16.10;8.20;;;;;;;;;;4979829;28;20452;-43
2023/03/05 10:33:25;;;;;;;19.70;9.40;;;;;;;;;;4985125;28;20438;-44
2023/03/05 10:36:09;;;;;;;14.30;9.00;;;;;;;;;;4991573;28;20566;-43
2023/03/05 10:38:35;;;;;;;16.07;8.77;;;;;;;;;;4991998;28;20452;-43
2023/03/05 10:41:22;;;;;;;14.57;8.40;;;;;;;;;;4991304;28;20448;-43
2023/03/05 10:43:48;;;;;;;14.63;9.17;;;;;;;;;;4983365;28;20902;-43
2023/03/05 10:46:18;;;;;;;17.33;8.67;;;;;;;;;;4992166;28;20424;-43
2023/03/05 10:48:52;;;;;;;13.60;9.33;;;;;;;;;;4992038;28;20928;-43
2023/03/05 10:51:21;;;;;;;14.05;9.02;;;;;;;;;;4994267;28;20879;-43
2023/03/05 10:53:53;;;;;;;15.82;8.40;;;;;;;;;;4991507;28;20197;-44
2023/03/05 10:56:20;;;;;;;9.52;7.28;;;;;;;;;;4995622;28;20576;-43
2023/03/05 10:58:46;;;;;;;14.85;8.27;;;;;;;;;;4995799;28;20213;-44
2023/03/05 11:01:14;;;;;;;12.50;7.73;;;;;;;;;;4995371;28;20224;-44
2023/03/05 11:03:59;;;;;;;12.30;8.20;;;;;;;;;;4994431;28;20815;-44
2023/03/05 11:06:35;;;;;;;8.25;6.57;;;;;;;;;;4989927;28;20777;-43
2023/03/05 11:09:13;;;;;;;23.38;11.75;;;;;;;;;;4995263;28;20188;-43
2023/03/05 11:11:39;;;;;;;25.88;13.00;;;;;;;;;;4994843;28;20211;-43
2023/03/05 11:14:21;;;;;;;11.00;8.23;;;;;;;;;;4994932;28;20188;-42
2023/03/05 11:16:48;;;;;;;10.80;7.40;;;;;;;;;;4994313;28;20429;-44
2023/03/05 11:19:14;;;;;;;12.15;7.50;;;;;;;;;;4994910;28;20467;-44
2023/03/05 11:21:41;;;;;;;9.30;7.20;;;;;;;;;;4993620;28;20197;-43
2023/03/05 11:24:12;;;;;;;8.83;6.93;;;;;;;;;;4994881;28;20814;-43
2023/03/05 11:26:45;;;;;;;8.70;5.82;;;;;;;;;;4995116;28;20459;-43
2023/03/05 11:29:16;;;;;;;8.38;5.65;;;;;;;;;;4987605;28;20201;-43
2023/03/05 11:31:42;;;;;;;7.40;6.50;;;;;;;;;;4993837;28;20197;-44
2023/03/05 11:34:17;;;;;;;8.13;6.03;;;;;;;;;;4991406;28;20527;-42
2023/03/05 11:37:02;;;;;;;5.80;5.07;;;;;;;;;;4994717;28;20419;-44
2023/03/05 11:39:31;;;;;;;10.93;5.35;;;;;;;;;;4995223;28;20177;-43
2023/03/05 11:41:57;;;;;;;11.23;6.27;;;;;;;;;;4993867;28;20193;-43
2023/03/05 11:44:23;;;;;;;10.77;7.83;;;;;;;;;;4994153;28;20500;-43
2023/03/05 11:47:13;;;;;;;10.80;7.60;;;;;;;;;;4994428;28;20912;-43
2023/03/05 11:49:42;;;;;;;9.48;8.10;;;;;;;;;;4994462;28;20413;-44
2023/03/05 11:52:17;;;;;;;13.57;7.63;;;;;;;;;;4984851;28;20670;-43
2023/03/05 11:55:02;;;;;;;14.43;8.33;;;;;;;;;;4993081;28;20187;-43
2023/03/05 11:57:30;;;;;;;13.03;9.00;;;;;;;;;;4994153;28;20425;-43
2023/03/05 11:59:57;;;;;;;9.27;7.73;;;;;;;;;;5004535;28;20412;-43
2023/03/05 12:02:25;;;;;;;10.07;7.63;;;;;;;;;;4993669;28;20801;-43
2023/03/05 12:04:51;;;;;;;7.43;6.57;;;;;;;;;;4994029;28;20412;-43
2023/03/05 12:07:20;;;;;;;8.40;7.00;;;;;;;;;;4993464;28;20819;-43
2023/03/05 12:09:48;;;;;;;9.67;7.80;;;;;;;;;;4994031;28;20425;-44
2023/03/05 12:12:14;;;;;;;8.17;6.87;;;;;;;;;;4992259;28;20986;-44
2023/03/05 12:15:02;;;;;;;7.07;6.33;;;;;;;;;;4994253;28;20417;-43
2023/03/05 12:17:31;;;;;;;10.27;6.00;;;;;;;;;;4989288;28;20425;-43
2023/03/05 12:20:03;;;;;;;8.50;5.70;;;;;;;;;;4994352;28;20422;-43
2023/03/05 12:22:33;;;;;;;6.43;5.80;;;;;;;;;;4994231;28;20466;-44
2023/03/05 12:25:18;;;;;;;5.03;4.63;;;;;;;;;;4994048;28;20428;-43
2023/03/05 12:27:45;;;;;;;4.10;3.80;;;;;;;;;;4994019;28;20514;-44
2023/03/05 12:30:29;;;;;;;3.97;3.67;;;;;;;;;;4992937;28;20903;-44
2023/03/05 12:32:55;;;;;;;4.57;3.20;;;;;;;;;;4994002;28;20765;-43
2023/03/05 12:35:23;;;;;;;5.93;3.03;;;;;;;;;;4993907;28;20407;-43
2023/03/05 12:37:49;;;;;;;2.70;2.50;;;;;;;;;;4994953;28;20938;-43
2023/03/05 12:40:15;;;;;;;2.30;2.10;;;;;;;;;;4992923;28;20447;-42
2023/03/05 12:42:45;;;;;;;2.63;2.10;;;;;;;;;;4992064;28;20479;-43
2023/03/05 12:45:12;;;;;;;5.40;3.53;;;;;;;;;;4985384;28;20436;-43
2023/03/05 12:47:39;;;;;;;2.20;2.00;;;;;;;;;;4993461;28;20521;-42
2023/03/05 12:50:25;;;;;;;1.70;1.60;;;;;;;;;;4992823;28;20421;-44
2023/03/05 12:52:52;;;;;;;3.13;2.87;;;;;;;;;;4993207;28;20439;-44
2023/03/05 12:55:22;;;;;;;2.30;2.10;;;;;;;;;;4993692;28;20424;-43
2023/03/05 12:57:52;;;;;;;2.33;2.13;;;;;;;;;;4993351;28;20934;-43
2023/03/05 13:00:20;;;;;;;3.53;3.20;;;;;;;;;;4992864;28;20730;-42
2023/03/05 13:02:47;;;;;;;4.10;3.10;;;;;;;;;;4993349;28;20451;-44
2023/03/05 13:05:20;;;;;;;2.77;2.57;;;;;;;;;;4993270;28;20412;-42
2023/03/05 13:07:46;;;;;;;2.40;2.20;;;;;;;;;;4992988;28;20832;-42
2023/03/05 13:10:38;;;;;;;4.07;3.80;;;;;;;;;;4992435;28;20434;-42
2023/03/05 13:13:04;;;;;;;5.30;3.43;;;;;;;;;;4989940;28;20459;-43
2023/03/05 13:15:30;;;;;;;11.20;6.53;;;;;;;;;;4993013;28;20412;-42
2023/03/05 13:17:59;;;;;;;8.13;5.90;;;;;;;;;;4992015;28;20420;-42
2023/03/05 13:20:28;;;;;;;6.37;5.77;;;;;;;;;;4990843;28;20812;-42
2023/03/05 13:23:14;;;;;;;5.13;4.63;;;;;;;;;;4992318;28;20431;-44
2023/03/05 13:25:40;;;;;;;5.30;4.80;;;;;;;;;;4992648;28;20905;-42
2023/03/05 13:28:13;;;;;;;5.17;4.67;;;;;;;;;;4992779;28;20593;-41
2023/03/05 13:30:43;;;;;;;5.00;4.50;;;;;;;;;;4992291;28;20421;-42
2023/03/05 13:33:16;;;;;;;4.50;4.10;;;;;;;;;;4984817;28;20536;-42
2023/03/05 13:35:44;;;;;;;4.93;4.50;;;;;;;;;;4992700;28;20415;-42
2023/03/05 13:38:24;;;;;;;5.80;5.30;;;;;;;;;;4992448;28;20418;-42
2023/03/05 13:41:07;;;;;;;5.60;5.10;;;;;;;;;;4991840;28;20421;-43
2023/03/05 13:43:33;;;;;;;6.40;4.77;;;;;;;;;;4991738;28;20457;-42
2023/03/05 13:45:59;;;;;;;7.13;4.77;;;;;;;;;;4991271;28;20433;-42
2023/03/05 13:48:27;;;;;;;8.87;4.73;;;;;;;;;;4992553;28;20468;-42
2023/03/05 13:50:54;;;;;;;4.73;4.33;;;;;;;;;;4991740;28;20418;-42
2023/03/05 13:53:24;;;;;;;4.57;4.27;;;;;;;;;;4992510;28;20411;-44
2023/03/05 13:55:50;;;;;;;8.53;5.67;;;;;;;;;;4992295;28;20973;-42
2023/03/05 13:58:35;;;;;;;5.20;4.70;;;;;;;;;;4992466;28;20408;-43
2023/03/05 14:01:11;;;;;;;6.40;4.60;;;;;;;;;;4991572;28;20418;-44
2023/03/05 14:03:37;;;;;;;6.00;4.43;;;;;;;;;;4992455;28;20416;-43
2023/03/05 14:06:09;;;;;;;5.33;4.67;;;;;;;;;;4990142;28;20422;-43
2023/03/05 14:08:35;;;;;;;7.40;4.53;;;;;;;;;;4991946;28;20993;-42
2023/03/05 14:11:11;;;;;;;7.67;4.53;;;;;;;;;;4991503;28;20410;-42
2023/03/05 14:13:37;;;;;;;4.10;3.77;;;;;;;;;;4992308;28;20469;-42
2023/03/05 14:16:08;;;;;;;4.40;3.93;;;;;;;;;;4990921;28;20435;-43
2023/03/05 14:18:35;;;;;;;4.43;4.07;;;;;;;;;;4991334;28;20445;-42
2023/03/05 14:21:08;;;;;;;6.13;4.67;;;;;;;;;;4991550;28;20419;-44
2023/03/05 14:23:42;;;;;;;8.17;5.87;;;;;;;;;;4992309;28;20502;-42
2023/03/05 14:26:22;;;;;;;8.17;6.40;;;;;;;;;;4992124;28;20443;-42
2023/03/05 14:28:54;;;;;;;7.67;6.70;;;;;;;;;;4988891;28;20548;-43
2023/03/05 14:31:21;;;;;;;10.53;7.53;;;;;;;;;;4991507;28;20888;-42
2023/03/05 14:33:48;;;;;;;9.93;7.97;;;;;;;;;;4992226;28;20573;-43
2023/03/05 14:36:14;;;;;;;8.80;6.37;;;;;;;;;;4991950;28;20412;-44
2023/03/05 14:38:41;;;;;;;7.93;7.13;;;;;;;;;;4989936;28;20424;-41
2023/03/05 14:41:43;;;;;;;8.03;6.57;;;;;;;;;;4991120;28;20423;-42
2023/03/05 14:44:13;;;;;;;7.07;6.37;;;;;;;;;;5011120;28;20440;-42